sensor_id;sensor_type;location;lat;lon;timestamp;temperature;humidity
77039;DHT22;65970;50.476;4.840;2023-12-07T00:04:58;5.20;41.50
77039;DHT22;65970;50.476;4.840;2023-12-07T00:09:58;5.20;41.50
77039;DHT22;65970;50.476;4.840;2023-12-07T00:14:59;5.20;41.70
77039;DHT22;65970;50.476;4.840;2023-12-07T00:19:59;5.20;41.50
77039;DHT22;65970;50.476;4.840;2023-12-07T00:25:00;5.10;41.60
77039;DHT22;65970;50.476;4.840;2023-12-07T00:30:00;5.10;41.60
77039;DHT22;65970;50.476;4.840;2023-12-07T00:35:01;5.10;41.50
77039;DHT22;65970;50.476;4.840;2023-12-07T00:40:02;5.10;41.30
77039;DHT22;65970;50.476;4.840;2023-12-07T00:45:02;5.10;41.50
77039;DHT22;65970;50.476;4.840;2023-12-07T00:50:03;5.10;41.50
77039;DHT22;65970;50.476;4.840;2023-12-07T00:55:05;5.10;41.10
77039;DHT22;65970;50.476;4.840;2023-12-07T01:00:08;5.10;40.30
77039;DHT22;65970;50.476;4.840;2023-12-07T01:05:09;5.10;41.50
77039;DHT22;65970;50.476;4.840;2023-12-07T01:10:09;5.10;41.50
77039;DHT22;65970;50.476;4.840;2023-12-07T01:15:10;5.10;41.40
77039;DHT22;65970;50.476;4.840;2023-12-07T01:20:11;5.10;41.20
77039;DHT22;65970;50.476;4.840;2023-12-07T01:25:11;5.10;41.00
77039;DHT22;65970;50.476;4.840;2023-12-07T01:30:12;5.00;41.10
77039;DHT22;65970;50.476;4.840;2023-12-07T01:35:13;5.00;41.20
77039;DHT22;65970;50.476;4.840;2023-12-07T01:40:13;5.00;41.30
77039;DHT22;65970;50.476;4.840;2023-12-07T01:45:14;5.00;41.10
77039;DHT22;65970;50.476;4.840;2023-12-07T01:50:15;5.00;41.40
77039;DHT22;65970;50.476;4.840;2023-12-07T01:55:15;5.00;40.40
77039;DHT22;65970;50.476;4.840;2023-12-07T02:00:17;5.00;41.30
77039;DHT22;65970;50.476;4.840;2023-12-07T02:05:18;5.00;41.30
77039;DHT22;65970;50.476;4.840;2023-12-07T02:10:18;5.00;41.00
77039;DHT22;65970;50.476;4.840;2023-12-07T02:15:20;4.90;41.00
77039;DHT22;65970;50.476;4.840;2023-12-07T02:20:52;5.00;41.30
77039;DHT22;65970;50.476;4.840;2023-12-07T02:25:52;4.90;41.30
77039;DHT22;65970;50.476;4.840;2023-12-07T02:30:53;4.90;41.40
77039;DHT22;65970;50.476;4.840;2023-12-07T02:35:54;4.90;41.50
77039;DHT22;65970;50.476;4.840;2023-12-07T02:40:55;4.90;41.60
77039;DHT22;65970;50.476;4.840;2023-12-07T02:45:57;4.90;41.80
77039;DHT22;65970;50.476;4.840;2023-12-07T02:50:57;4.90;41.80
77039;DHT22;65970;50.476;4.840;2023-12-07T02:55:58;4.90;40.80
77039;DHT22;65970;50.476;4.840;2023-12-07T03:00:58;4.90;41.80
77039;DHT22;65970;50.476;4.840;2023-12-07T03:05:59;4.80;41.70
77039;DHT22;65970;50.476;4.840;2023-12-07T03:11:00;4.80;41.70
77039;DHT22;65970;50.476;4.840;2023-12-07T03:16:00;4.80;41.70
77039;DHT22;65970;50.476;4.840;2023-12-07T03:21:02;4.80;41.80
77039;DHT22;65970;50.476;4.840;2023-12-07T03:26:02;4.80;41.70
77039;DHT22;65970;50.476;4.840;2023-12-07T03:31:03;4.80;41.70
77039;DHT22;65970;50.476;4.840;2023-12-07T03:36:04;4.80;41.60
77039;DHT22;65970;50.476;4.840;2023-12-07T03:41:05;4.80;41.50
77039;DHT22;65970;50.476;4.840;2023-12-07T03:46:07;4.80;41.70
77039;DHT22;65970;50.476;4.840;2023-12-07T03:51:07;4.80;41.50
77039;DHT22;65970;50.476;4.840;2023-12-07T03:56:08;4.80;41.50
77039;DHT22;65970;50.476;4.840;2023-12-07T04:01:09;4.80;41.50
77039;DHT22;65970;50.476;4.840;2023-12-07T04:06:09;4.80;41.30
77039;DHT22;65970;50.476;4.840;2023-12-07T04:11:10;4.80;41.20
77039;DHT22;65970;50.476;4.840;2023-12-07T04:16:11;4.80;41.20
77039;DHT22;65970;50.476;4.840;2023-12-07T04:21:11;4.80;41.30
77039;DHT22;65970;50.476;4.840;2023-12-07T04:26:12;4.80;41.20
77039;DHT22;65970;50.476;4.840;2023-12-07T04:31:12;4.80;41.30
77039;DHT22;65970;50.476;4.840;2023-12-07T04:36:13;4.80;40.40
77039;DHT22;65970;50.476;4.840;2023-12-07T04:41:14;4.70;41.30
77039;DHT22;65970;50.476;4.840;2023-12-07T04:46:14;4.70;41.30
77039;DHT22;65970;50.476;4.840;2023-12-07T04:51:15;4.80;41.30
77039;DHT22;65970;50.476;4.840;2023-12-07T04:56:15;4.70;41.30
77039;DHT22;65970;50.476;4.840;2023-12-07T05:01:16;4.70;41.60
77039;DHT22;65970;50.476;4.840;2023-12-07T05:06:17;4.70;41.30
77039;DHT22;65970;50.476;4.840;2023-12-07T05:11:17;4.70;41.50
77039;DHT22;65970;50.476;4.840;2023-12-07T05:16:18;4.70;41.60
77039;DHT22;65970;50.476;4.840;2023-12-07T05:21:18;4.70;41.20
77039;DHT22;65970;50.476;4.840;2023-12-07T05:26:19;4.70;41.30
77039;DHT22;65970;50.476;4.840;2023-12-07T05:31:20;4.70;41.30
77039;DHT22;65970;50.476;4.840;2023-12-07T05:36:20;4.70;40.40
77039;DHT22;65970;50.476;4.840;2023-12-07T05:41:21;4.70;41.20
77039;DHT22;65970;50.476;4.840;2023-12-07T05:46:21;4.70;41.20
77039;DHT22;65970;50.476;4.840;2023-12-07T05:51:23;4.70;41.20
77039;DHT22;65970;50.476;4.840;2023-12-07T05:56:23;4.70;41.20
77039;DHT22;65970;50.476;4.840;2023-12-07T06:01:24;4.70;41.10
77039;DHT22;65970;50.476;4.840;2023-12-07T06:06:25;4.70;41.10
77039;DHT22;65970;50.476;4.840;2023-12-07T06:11:25;4.70;41.10
77039;DHT22;65970;50.476;4.840;2023-12-07T06:16:26;4.70;41.00
77039;DHT22;65970;50.476;4.840;2023-12-07T06:21:26;4.70;41.00
77039;DHT22;65970;50.476;4.840;2023-12-07T06:26:27;4.70;41.00
77039;DHT22;65970;50.476;4.840;2023-12-07T06:31:27;4.60;41.00
77039;DHT22;65970;50.476;4.840;2023-12-07T06:36:28;4.70;41.00
77039;DHT22;65970;50.476;4.840;2023-12-07T06:41:29;4.60;41.00
77039;DHT22;65970;50.476;4.840;2023-12-07T06:46:29;4.60;41.00
77039;DHT22;65970;50.476;4.840;2023-12-07T06:51:30;4.60;41.00
77039;DHT22;65970;50.476;4.840;2023-12-07T06:56:30;4.60;41.00
77039;DHT22;65970;50.476;4.840;2023-12-07T07:01:31;4.60;40.90
77039;DHT22;65970;50.476;4.840;2023-12-07T07:06:31;4.60;41.00
77039;DHT22;65970;50.476;4.840;2023-12-07T07:11:32;4.60;41.00
77039;DHT22;65970;50.476;4.840;2023-12-07T07:16:32;4.60;40.90
77039;DHT22;65970;50.476;4.840;2023-12-07T07:21:33;4.60;41.00
77039;DHT22;65970;50.476;4.840;2023-12-07T07:26:34;4.60;41.00
77039;DHT22;65970;50.476;4.840;2023-12-07T07:31:34;4.60;41.00
77039;DHT22;65970;50.476;4.840;2023-12-07T07:36:35;4.60;41.00
77039;DHT22;65970;50.476;4.840;2023-12-07T07:41:35;4.60;41.00
77039;DHT22;65970;50.476;4.840;2023-12-07T07:46:36;4.60;41.00
77039;DHT22;65970;50.476;4.840;2023-12-07T07:51:37;4.60;40.90
77039;DHT22;65970;50.476;4.840;2023-12-07T07:56:37;4.60;40.90
77039;DHT22;65970;50.476;4.840;2023-12-07T08:01:38;4.60;40.90
77039;DHT22;65970;50.476;4.840;2023-12-07T08:06:38;4.60;41.00
77039;DHT22;65970;50.476;4.840;2023-12-07T08:11:39;4.60;40.90
77039;DHT22;65970;50.476;4.840;2023-12-07T08:16:44;4.60;40.90
77039;DHT22;65970;50.476;4.840;2023-12-07T08:21:44;4.60;40.90
77039;DHT22;65970;50.476;4.840;2023-12-07T08:26:45;4.60;40.90
77039;DHT22;65970;50.476;4.840;2023-12-07T08:31:45;4.60;40.90
77039;DHT22;65970;50.476;4.840;2023-12-07T08:36:46;4.60;40.90
77039;DHT22;65970;50.476;4.840;2023-12-07T08:41:46;4.60;40.80
77039;DHT22;65970;50.476;4.840;2023-12-07T08:46:47;4.60;40.80
77039;DHT22;65970;50.476;4.840;2023-12-07T08:51:48;4.60;40.90
77039;DHT22;65970;50.476;4.840;2023-12-07T08:56:48;4.60;39.50
77039;DHT22;65970;50.476;4.840;2023-12-07T09:01:49;4.60;40.90
77039;DHT22;65970;50.476;4.840;2023-12-07T09:06:49;4.70;40.80
77039;DHT22;65970;50.476;4.840;2023-12-07T09:11:50;4.70;40.90
77039;DHT22;65970;50.476;4.840;2023-12-07T09:16:50;4.70;40.90
77039;DHT22;65970;50.476;4.840;2023-12-07T09:21:51;4.70;40.80
77039;DHT22;65970;50.476;4.840;2023-12-07T09:26:51;4.70;40.90
77039;DHT22;65970;50.476;4.840;2023-12-07T09:31:52;4.70;40.80
77039;DHT22;65970;50.476;4.840;2023-12-07T09:37:08;4.70;40.80
77039;DHT22;65970;50.476;4.840;2023-12-07T09:42:08;4.80;40.90
77039;DHT22;65970;50.476;4.840;2023-12-07T09:47:10;4.70;40.80
77039;DHT22;65970;50.476;4.840;2023-12-07T09:52:11;4.80;40.80
77039;DHT22;65970;50.476;4.840;2023-12-07T09:57:12;4.80;40.80
77039;DHT22;65970;50.476;4.840;2023-12-07T10:02:13;4.80;40.80
77039;DHT22;65970;50.476;4.840;2023-12-07T10:07:14;4.80;40.70
77039;DHT22;65970;50.476;4.840;2023-12-07T10:12:14;4.90;40.80
77039;DHT22;65970;50.476;4.840;2023-12-07T10:17:15;4.90;40.70
77039;DHT22;65970;50.476;4.840;2023-12-07T10:22:15;4.90;40.80
77039;DHT22;65970;50.476;4.840;2023-12-07T10:27:16;4.90;40.90
77039;DHT22;65970;50.476;4.840;2023-12-07T10:32:16;5.00;40.80
77039;DHT22;65970;50.476;4.840;2023-12-07T10:37:17;5.00;40.90
77039;DHT22;65970;50.476;4.840;2023-12-07T10:42:18;5.00;40.90
77039;DHT22;65970;50.476;4.840;2023-12-07T10:47:24;5.10;41.00
77039;DHT22;65970;50.476;4.840;2023-12-07T10:52:27;5.10;41.00
77039;DHT22;65970;50.476;4.840;2023-12-07T10:57:33;5.10;40.90
77039;DHT22;65970;50.476;4.840;2023-12-07T11:02:35;5.10;41.00
77039;DHT22;65970;50.476;4.840;2023-12-07T11:07:57;5.20;41.00
77039;DHT22;65970;50.476;4.840;2023-12-07T11:13:20;5.20;40.90
77039;DHT22;65970;50.476;4.840;2023-12-07T11:18:26;5.20;40.60
77039;DHT22;65970;50.476;4.840;2023-12-07T11:23:27;5.20;40.60
77039;DHT22;65970;50.476;4.840;2023-12-07T11:28:35;5.30;40.70
77039;DHT22;65970;50.476;4.840;2023-12-07T11:33:40;5.30;40.70
77039;DHT22;65970;50.476;4.840;2023-12-07T11:44:04;5.30;40.60
77039;DHT22;65970;50.476;4.840;2023-12-07T11:49:06;5.30;40.70
77039;DHT22;65970;50.476;4.840;2023-12-07T11:54:07;5.30;40.50
77039;DHT22;65970;50.476;4.840;2023-12-07T11:59:10;5.40;40.50
77039;DHT22;65970;50.476;4.840;2023-12-07T12:04:11;5.30;40.40
77039;DHT22;65970;50.476;4.840;2023-12-07T12:09:14;5.40;40.40
77039;DHT22;65970;50.476;4.840;2023-12-07T12:14:16;5.40;40.50
77039;DHT22;65970;50.476;4.840;2023-12-07T12:19:17;5.40;40.50
77039;DHT22;65970;50.476;4.840;2023-12-07T12:24:17;5.40;40.50
77039;DHT22;65970;50.476;4.840;2023-12-07T12:29:18;5.40;40.50
77039;DHT22;65970;50.476;4.840;2023-12-07T12:34:21;5.40;40.40
77039;DHT22;65970;50.476;4.840;2023-12-07T12:39:29;5.50;40.50
77039;DHT22;65970;50.476;4.840;2023-12-07T12:44:31;5.40;40.40
77039;DHT22;65970;50.476;4.840;2023-12-07T12:49:38;5.50;40.50
77039;DHT22;65970;50.476;4.840;2023-12-07T12:54:38;5.50;40.50
77039;DHT22;65970;50.476;4.840;2023-12-07T12:59:39;5.50;40.50
77039;DHT22;65970;50.476;4.840;2023-12-07T13:04:40;5.50;40.50
77039;DHT22;65970;50.476;4.840;2023-12-07T13:09:40;5.50;40.50
77039;DHT22;65970;50.476;4.840;2023-12-07T13:14:41;5.50;40.70
77039;DHT22;65970;50.476;4.840;2023-12-07T13:19:41;5.50;40.50
77039;DHT22;65970;50.476;4.840;2023-12-07T13:24:42;5.50;40.60
77039;DHT22;65970;50.476;4.840;2023-12-07T13:29:43;5.60;40.60
77039;DHT22;65970;50.476;4.840;2023-12-07T13:34:43;5.60;40.60
77039;DHT22;65970;50.476;4.840;2023-12-07T13:39:44;5.60;40.60
77039;DHT22;65970;50.476;4.840;2023-12-07T13:44:44;5.60;40.60
77039;DHT22;65970;50.476;4.840;2023-12-07T13:49:45;5.60;40.70
77039;DHT22;65970;50.476;4.840;2023-12-07T13:54:45;5.60;40.70
77039;DHT22;65970;50.476;4.840;2023-12-07T13:59:46;5.60;39.90
77039;DHT22;65970;50.476;4.840;2023-12-07T14:04:47;5.60;40.70
77039;DHT22;65970;50.476;4.840;2023-12-07T14:09:50;5.60;40.80
77039;DHT22;65970;50.476;4.840;2023-12-07T14:14:50;5.70;41.00
77039;DHT22;65970;50.476;4.840;2023-12-07T14:19:51;5.60;40.80
77039;DHT22;65970;50.476;4.840;2023-12-07T14:24:52;5.70;41.00
77039;DHT22;65970;50.476;4.840;2023-12-07T14:29:52;5.70;40.90
77039;DHT22;65970;50.476;4.840;2023-12-07T14:34:53;5.70;41.00
77039;DHT22;65970;50.476;4.840;2023-12-07T14:39:53;5.70;41.00
77039;DHT22;65970;50.476;4.840;2023-12-07T14:44:54;5.70;41.00
77039;DHT22;65970;50.476;4.840;2023-12-07T14:49:54;5.70;41.00
77039;DHT22;65970;50.476;4.840;2023-12-07T14:54:55;5.70;41.10
77039;DHT22;65970;50.476;4.840;2023-12-07T14:59:55;5.70;41.10
77039;DHT22;65970;50.476;4.840;2023-12-07T15:04:56;5.70;41.10
77039;DHT22;65970;50.476;4.840;2023-12-07T15:09:57;5.70;41.10
77039;DHT22;65970;50.476;4.840;2023-12-07T15:14:57;5.70;41.10
77039;DHT22;65970;50.476;4.840;2023-12-07T15:19:58;5.70;41.10
77039;DHT22;65970;50.476;4.840;2023-12-07T15:24:58;5.70;41.10
77039;DHT22;65970;50.476;4.840;2023-12-07T15:29:59;5.70;41.10
77039;DHT22;65970;50.476;4.840;2023-12-07T15:34:59;5.70;41.10
77039;DHT22;65970;50.476;4.840;2023-12-07T15:40:00;5.70;41.20
77039;DHT22;65970;50.476;4.840;2023-12-07T15:45:00;5.70;41.10
77039;DHT22;65970;50.476;4.840;2023-12-07T15:50:01;5.70;40.90
77039;DHT22;65970;50.476;4.840;2023-12-07T15:55:02;5.70;40.90
77039;DHT22;65970;50.476;4.840;2023-12-07T16:00:03;5.70;40.70
77039;DHT22;65970;50.476;4.840;2023-12-07T16:05:04;5.70;40.90
77039;DHT22;65970;50.476;4.840;2023-12-07T16:10:08;5.70;40.80
77039;DHT22;65970;50.476;4.840;2023-12-07T16:15:09;5.60;40.80
77039;DHT22;65970;50.476;4.840;2023-12-07T16:20:10;5.60;40.60
77039;DHT22;65970;50.476;4.840;2023-12-07T16:25:11;5.60;40.50
77039;DHT22;65970;50.476;4.840;2023-12-07T16:30:12;5.60;40.10
77039;DHT22;65970;50.476;4.840;2023-12-07T16:35:12;5.60;40.00
77039;DHT22;65970;50.476;4.840;2023-12-07T16:40:13;5.60;40.00
77039;DHT22;65970;50.476;4.840;2023-12-07T16:45:13;5.60;40.00
77039;DHT22;65970;50.476;4.840;2023-12-07T16:50:14;5.60;40.00
77039;DHT22;65970;50.476;4.840;2023-12-07T16:55:14;5.60;40.00
77039;DHT22;65970;50.476;4.840;2023-12-07T17:00:15;5.60;40.00
77039;DHT22;65970;50.476;4.840;2023-12-07T17:05:16;5.60;40.10
77039;DHT22;65970;50.476;4.840;2023-12-07T17:10:16;5.50;40.00
77039;DHT22;65970;50.476;4.840;2023-12-07T17:15:17;5.50;40.00
77039;DHT22;65970;50.476;4.840;2023-12-07T17:20:17;5.50;40.00
77039;DHT22;65970;50.476;4.840;2023-12-07T17:25:18;5.50;40.00
77039;DHT22;65970;50.476;4.840;2023-12-07T17:30:20;5.50;40.00
77039;DHT22;65970;50.476;4.840;2023-12-07T17:35:20;5.50;39.90
77039;DHT22;65970;50.476;4.840;2023-12-07T17:40:21;5.50;39.90
77039;DHT22;65970;50.476;4.840;2023-12-07T17:45:22;5.50;40.00
77039;DHT22;65970;50.476;4.840;2023-12-07T17:50:22;5.50;39.90
77039;DHT22;65970;50.476;4.840;2023-12-07T17:55:23;5.50;40.00
77039;DHT22;65970;50.476;4.840;2023-12-07T18:00:23;5.50;40.00
77039;DHT22;65970;50.476;4.840;2023-12-07T18:05:24;5.50;40.00
77039;DHT22;65970;50.476;4.840;2023-12-07T18:10:24;5.50;39.70
77039;DHT22;65970;50.476;4.840;2023-12-07T18:15:25;5.50;39.70
77039;DHT22;65970;50.476;4.840;2023-12-07T18:20:26;5.50;39.70
77039;DHT22;65970;50.476;4.840;2023-12-07T18:25:26;5.50;39.50
77039;DHT22;65970;50.476;4.840;2023-12-07T18:30:27;5.50;39.30
77039;DHT22;65970;50.476;4.840;2023-12-07T18:35:27;5.50;39.20
77039;DHT22;65970;50.476;4.840;2023-12-07T18:40:28;5.50;38.90
77039;DHT22;65970;50.476;4.840;2023-12-07T18:45:28;5.40;38.70
77039;DHT22;65970;50.476;4.840;2023-12-07T18:50:30;5.50;38.50
77039;DHT22;65970;50.476;4.840;2023-12-07T18:55:30;5.50;38.40
77039;DHT22;65970;50.476;4.840;2023-12-07T19:00:31;5.50;38.40
77039;DHT22;65970;50.476;4.840;2023-12-07T19:05:32;5.50;38.50
77039;DHT22;65970;50.476;4.840;2023-12-07T19:10:32;5.50;38.50
77039;DHT22;65970;50.476;4.840;2023-12-07T19:15:33;5.50;38.60
77039;DHT22;65970;50.476;4.840;2023-12-07T19:20:34;5.50;38.70
77039;DHT22;65970;50.476;4.840;2023-12-07T19:25:34;5.50;38.80
77039;DHT22;65970;50.476;4.840;2023-12-07T19:30:35;5.50;38.60
77039;DHT22;65970;50.476;4.840;2023-12-07T19:35:35;5.50;38.60
77039;DHT22;65970;50.476;4.840;2023-12-07T19:40:36;5.50;38.70
77039;DHT22;65970;50.476;4.840;2023-12-07T19:45:36;5.50;38.80
77039;DHT22;65970;50.476;4.840;2023-12-07T19:50:37;5.40;38.70
77039;DHT22;65970;50.476;4.840;2023-12-07T19:55:37;5.50;39.00
77039;DHT22;65970;50.476;4.840;2023-12-07T20:00:38;5.50;39.20
77039;DHT22;65970;50.476;4.840;2023-12-07T20:05:39;5.50;39.20
77039;DHT22;65970;50.476;4.840;2023-12-07T20:10:39;5.50;39.20
77039;DHT22;65970;50.476;4.840;2023-12-07T20:15:40;5.50;39.30
77039;DHT22;65970;50.476;4.840;2023-12-07T20:20:40;5.50;39.30
77039;DHT22;65970;50.476;4.840;2023-12-07T20:25:41;5.50;39.30
77039;DHT22;65970;50.476;4.840;2023-12-07T20:30:41;5.50;39.30
77039;DHT22;65970;50.476;4.840;2023-12-07T20:35:42;5.50;39.40
77039;DHT22;65970;50.476;4.840;2023-12-07T20:40:42;5.50;39.50
77039;DHT22;65970;50.476;4.840;2023-12-07T20:45:43;5.50;39.50
77039;DHT22;65970;50.476;4.840;2023-12-07T20:50:43;5.50;39.40
77039;DHT22;65970;50.476;4.840;2023-12-07T20:55:44;5.50;39.20
77039;DHT22;65970;50.476;4.840;2023-12-07T21:00:45;5.50;39.30
77039;DHT22;65970;50.476;4.840;2023-12-07T21:05:45;5.50;39.20
77039;DHT22;65970;50.476;4.840;2023-12-07T21:10:46;5.50;39.20
77039;DHT22;65970;50.476;4.840;2023-12-07T21:15:46;5.50;39.30
77039;DHT22;65970;50.476;4.840;2023-12-07T21:20:47;5.50;39.30
77039;DHT22;65970;50.476;4.840;2023-12-07T21:25:47;5.50;39.30
77039;DHT22;65970;50.476;4.840;2023-12-07T21:30:48;5.50;39.20
77039;DHT22;65970;50.476;4.840;2023-12-07T21:35:48;5.50;39.00
77039;DHT22;65970;50.476;4.840;2023-12-07T21:40:49;5.50;38.80
77039;DHT22;65970;50.476;4.840;2023-12-07T21:45:50;5.50;39.00
77039;DHT22;65970;50.476;4.840;2023-12-07T21:50:50;5.50;38.70
77039;DHT22;65970;50.476;4.840;2023-12-07T21:55:51;5.50;38.20
77039;DHT22;65970;50.476;4.840;2023-12-07T22:00:51;5.60;38.60
77039;DHT22;65970;50.476;4.840;2023-12-07T22:05:52;5.60;38.30
77039;DHT22;65970;50.476;4.840;2023-12-07T22:10:52;5.50;38.30
77039;DHT22;65970;50.476;4.840;2023-12-07T22:15:53;5.60;37.80
77039;DHT22;65970;50.476;4.840;2023-12-07T22:20:53;5.60;38.00
77039;DHT22;65970;50.476;4.840;2023-12-07T22:25:54;5.60;38.00
77039;DHT22;65970;50.476;4.840;2023-12-07T22:30:55;5.60;37.10
77039;DHT22;65970;50.476;4.840;2023-12-07T22:35:55;5.60;37.70
77039;DHT22;65970;50.476;4.840;2023-12-07T22:40:56;5.60;38.00
77039;DHT22;65970;50.476;4.840;2023-12-07T22:45:56;5.60;37.80
77039;DHT22;65970;50.476;4.840;2023-12-07T22:50:57;5.60;37.00
77039;DHT22;65970;50.476;4.840;2023-12-07T22:55:57;5.60;37.80
77039;DHT22;65970;50.476;4.840;2023-12-07T23:00:58;5.60;37.50
77039;DHT22;65970;50.476;4.840;2023-12-07T23:05:58;5.60;37.80
77039;DHT22;65970;50.476;4.840;2023-12-07T23:10:59;5.60;38.00
77039;DHT22;65970;50.476;4.840;2023-12-07T23:15:59;5.60;38.20
77039;DHT22;65970;50.476;4.840;2023-12-07T23:21:00;5.60;38.00
77039;DHT22;65970;50.476;4.840;2023-12-07T23:26:01;5.70;38.00
77039;DHT22;65970;50.476;4.840;2023-12-07T23:31:01;5.70;38.10
77039;DHT22;65970;50.476;4.840;2023-12-07T23:36:02;5.70;37.70
77039;DHT22;65970;50.476;4.840;2023-12-07T23:41:02;5.70;38.10
77039;DHT22;65970;50.476;4.840;2023-12-07T23:46:07;5.70;37.80
77039;DHT22;65970;50.476;4.840;2023-12-07T23:51:08;5.70;38.00
77039;DHT22;65970;50.476;4.840;2023-12-07T23:56:10;5.70;38.00
